sensor_id;sensor_type;location;lat;lon;timestamp;P1;durP1;ratioP1;P2;durP2;ratioP2
74487;SDS011;63019;51.080;13.642;2023-12-20T00:00:21;2.17;;;1.50;;
74487;SDS011;63019;51.080;13.642;2023-12-20T00:01:23;2.42;;;1.48;;
74487;SDS011;63019;51.080;13.642;2023-12-20T00:02:25;2.08;;;1.50;;
74487;SDS011;63019;51.080;13.642;2023-12-20T00:03:27;2.10;;;1.48;;
74487;SDS011;63019;51.080;13.642;2023-12-20T00:04:35;2.65;;;1.40;;
74487;SDS011;63019;51.080;13.642;2023-12-20T00:05:37;2.17;;;1.30;;
74487;SDS011;63019;51.080;13.642;2023-12-20T00:06:42;2.15;;;1.40;;
74487;SDS011;63019;51.080;13.642;2023-12-20T00:07:44;2.28;;;1.40;;
74487;SDS011;63019;51.080;13.642;2023-12-20T00:08:46;1.87;;;1.13;;
74487;SDS011;63019;51.080;13.642;2023-12-20T00:09:49;1.85;;;1.35;;
74487;SDS011;63019;51.080;13.642;2023-12-20T00:10:50;2.70;;;1.50;;
74487;SDS011;63019;51.080;13.642;2023-12-20T00:11:52;4.25;;;1.55;;
74487;SDS011;63019;51.080;13.642;2023-12-20T00:12:54;2.60;;;1.42;;
74487;SDS011;63019;51.080;13.642;2023-12-20T00:13:56;1.88;;;1.40;;
74487;SDS011;63019;51.080;13.642;2023-12-20T00:14:58;2.88;;;1.50;;
74487;SDS011;63019;51.080;13.642;2023-12-20T00:15:59;2.53;;;1.10;;
74487;SDS011;63019;51.080;13.642;2023-12-20T00:17:01;2.38;;;1.13;;
74487;SDS011;63019;51.080;13.642;2023-12-20T00:18:03;4.55;;;1.20;;
74487;SDS011;63019;51.080;13.642;2023-12-20T00:19:05;3.57;;;1.47;;
74487;SDS011;63019;51.080;13.642;2023-12-20T00:20:07;2.35;;;1.17;;
74487;SDS011;63019;51.080;13.642;2023-12-20T00:21:09;2.25;;;1.40;;
74487;SDS011;63019;51.080;13.642;2023-12-20T00:22:11;2.63;;;1.15;;
74487;SDS011;63019;51.080;13.642;2023-12-20T00:23:13;2.72;;;1.45;;
74487;SDS011;63019;51.080;13.642;2023-12-20T00:24:15;1.70;;;1.10;;
74487;SDS011;63019;51.080;13.642;2023-12-20T00:25:17;1.60;;;1.00;;
74487;SDS011;63019;51.080;13.642;2023-12-20T00:26:19;2.33;;;1.40;;
74487;SDS011;63019;51.080;13.642;2023-12-20T00:27:21;1.88;;;1.23;;
74487;SDS011;63019;51.080;13.642;2023-12-20T00:28:24;2.05;;;1.30;;
74487;SDS011;63019;51.080;13.642;2023-12-20T00:29:26;2.10;;;1.33;;
74487;SDS011;63019;51.080;13.642;2023-12-20T00:30:28;1.73;;;1.20;;
74487;SDS011;63019;51.080;13.642;2023-12-20T00:31:30;3.13;;;1.30;;
74487;SDS011;63019;51.080;13.642;2023-12-20T00:32:31;1.45;;;1.05;;
74487;SDS011;63019;51.080;13.642;2023-12-20T00:33:33;2.88;;;1.30;;
74487;SDS011;63019;51.080;13.642;2023-12-20T00:34:35;2.38;;;1.10;;
74487;SDS011;63019;51.080;13.642;2023-12-20T00:35:37;2.42;;;1.40;;
74487;SDS011;63019;51.080;13.642;2023-12-20T00:36:39;2.20;;;1.25;;
74487;SDS011;63019;51.080;13.642;2023-12-20T00:37:41;1.65;;;1.30;;
74487;SDS011;63019;51.080;13.642;2023-12-20T00:38:44;2.22;;;1.05;;
74487;SDS011;63019;51.080;13.642;2023-12-20T00:39:46;1.63;;;1.10;;
74487;SDS011;63019;51.080;13.642;2023-12-20T00:40:47;2.25;;;1.05;;
74487;SDS011;63019;51.080;13.642;2023-12-20T00:41:50;1.70;;;1.00;;
74487;SDS011;63019;51.080;13.642;2023-12-20T00:42:52;2.08;;;1.20;;
74487;SDS011;63019;51.080;13.642;2023-12-20T00:43:54;1.88;;;1.10;;
74487;SDS011;63019;51.080;13.642;2023-12-20T00:44:56;1.48;;;1.23;;
74487;SDS011;63019;51.080;13.642;2023-12-20T00:45:58;1.45;;;1.00;;
74487;SDS011;63019;51.080;13.642;2023-12-20T00:47:01;3.30;;;1.10;;
74487;SDS011;63019;51.080;13.642;2023-12-20T00:48:03;3.33;;;1.20;;
74487;SDS011;63019;51.080;13.642;2023-12-20T00:49:05;1.10;;;0.85;;
74487;SDS011;63019;51.080;13.642;2023-12-20T00:50:07;1.27;;;1.00;;
74487;SDS011;63019;51.080;13.642;2023-12-20T00:51:10;2.83;;;1.17;;
74487;SDS011;63019;51.080;13.642;2023-12-20T00:52:12;0.60;;;0.60;;
74487;SDS011;63019;51.080;13.642;2023-12-20T00:53:14;1.48;;;0.93;;
74487;SDS011;63019;51.080;13.642;2023-12-20T00:54:16;1.13;;;0.98;;
74487;SDS011;63019;51.080;13.642;2023-12-20T00:55:18;1.52;;;0.95;;
74487;SDS011;63019;51.080;13.642;2023-12-20T00:56:20;2.00;;;1.05;;
74487;SDS011;63019;51.080;13.642;2023-12-20T00:57:22;1.95;;;0.90;;
74487;SDS011;63019;51.080;13.642;2023-12-20T00:58:25;1.40;;;1.00;;
74487;SDS011;63019;51.080;13.642;2023-12-20T00:59:29;1.13;;;0.80;;
74487;SDS011;63019;51.080;13.642;2023-12-20T01:00:31;1.73;;;0.80;;
74487;SDS011;63019;51.080;13.642;2023-12-20T01:01:32;3.05;;;0.90;;
74487;SDS011;63019;51.080;13.642;2023-12-20T01:02:35;2.95;;;1.05;;
74487;SDS011;63019;51.080;13.642;2023-12-20T01:03:36;1.55;;;1.00;;
74487;SDS011;63019;51.080;13.642;2023-12-20T01:04:39;1.40;;;0.75;;
74487;SDS011;63019;51.080;13.642;2023-12-20T01:05:40;4.55;;;1.00;;
74487;SDS011;63019;51.080;13.642;2023-12-20T01:06:42;2.25;;;0.90;;
74487;SDS011;63019;51.080;13.642;2023-12-20T01:07:44;1.90;;;0.95;;
74487;SDS011;63019;51.080;13.642;2023-12-20T01:08:47;2.45;;;0.90;;
74487;SDS011;63019;51.080;13.642;2023-12-20T01:09:48;1.65;;;0.98;;
74487;SDS011;63019;51.080;13.642;2023-12-20T01:10:50;1.60;;;0.90;;
74487;SDS011;63019;51.080;13.642;2023-12-20T01:11:52;2.35;;;1.00;;
74487;SDS011;63019;51.080;13.642;2023-12-20T01:12:54;1.40;;;0.73;;
74487;SDS011;63019;51.080;13.642;2023-12-20T01:13:56;1.10;;;0.82;;
74487;SDS011;63019;51.080;13.642;2023-12-20T01:14:58;1.33;;;0.73;;
74487;SDS011;63019;51.080;13.642;2023-12-20T01:15:59;1.77;;;1.00;;
74487;SDS011;63019;51.080;13.642;2023-12-20T01:17:01;0.93;;;0.80;;
74487;SDS011;63019;51.080;13.642;2023-12-20T01:18:03;1.77;;;0.80;;
74487;SDS011;63019;51.080;13.642;2023-12-20T01:19:06;0.82;;;0.70;;
74487;SDS011;63019;51.080;13.642;2023-12-20T01:20:08;1.90;;;0.88;;
74487;SDS011;63019;51.080;13.642;2023-12-20T01:21:10;1.73;;;0.80;;
74487;SDS011;63019;51.080;13.642;2023-12-20T01:22:12;1.67;;;0.70;;
74487;SDS011;63019;51.080;13.642;2023-12-20T01:23:14;1.17;;;0.80;;
74487;SDS011;63019;51.080;13.642;2023-12-20T01:24:16;0.80;;;0.75;;
74487;SDS011;63019;51.080;13.642;2023-12-20T01:25:17;1.10;;;0.80;;
74487;SDS011;63019;51.080;13.642;2023-12-20T01:26:20;1.20;;;0.90;;
74487;SDS011;63019;51.080;13.642;2023-12-20T01:27:22;1.10;;;0.60;;
74487;SDS011;63019;51.080;13.642;2023-12-20T01:28:24;1.23;;;0.75;;
74487;SDS011;63019;51.080;13.642;2023-12-20T01:29:25;1.10;;;0.70;;
74487;SDS011;63019;51.080;13.642;2023-12-20T01:30:27;1.30;;;0.80;;
74487;SDS011;63019;51.080;13.642;2023-12-20T01:31:29;0.60;;;0.60;;
74487;SDS011;63019;51.080;13.642;2023-12-20T01:32:31;4.80;;;0.77;;
74487;SDS011;63019;51.080;13.642;2023-12-20T01:33:33;0.68;;;0.50;;
74487;SDS011;63019;51.080;13.642;2023-12-20T01:34:35;2.72;;;0.80;;
74487;SDS011;63019;51.080;13.642;2023-12-20T01:35:37;0.88;;;0.63;;
74487;SDS011;63019;51.080;13.642;2023-12-20T01:36:39;1.35;;;0.60;;
74487;SDS011;63019;51.080;13.642;2023-12-20T01:37:41;1.13;;;0.70;;
74487;SDS011;63019;51.080;13.642;2023-12-20T01:38:43;1.33;;;0.70;;
74487;SDS011;63019;51.080;13.642;2023-12-20T01:39:45;0.82;;;0.45;;
74487;SDS011;63019;51.080;13.642;2023-12-20T01:40:46;0.65;;;0.50;;
74487;SDS011;63019;51.080;13.642;2023-12-20T01:41:48;0.77;;;0.60;;
74487;SDS011;63019;51.080;13.642;2023-12-20T01:43:00;1.05;;;0.60;;
74487;SDS011;63019;51.080;13.642;2023-12-20T01:44:03;0.40;;;0.40;;
74487;SDS011;63019;51.080;13.642;2023-12-20T01:45:05;0.90;;;0.60;;
74487;SDS011;63019;51.080;13.642;2023-12-20T01:46:07;0.70;;;0.60;;
74487;SDS011;63019;51.080;13.642;2023-12-20T01:47:09;0.75;;;0.47;;
74487;SDS011;63019;51.080;13.642;2023-12-20T01:48:11;0.75;;;0.45;;
74487;SDS011;63019;51.080;13.642;2023-12-20T01:49:13;0.60;;;0.50;;
74487;SDS011;63019;51.080;13.642;2023-12-20T01:50:15;0.88;;;0.40;;
74487;SDS011;63019;51.080;13.642;2023-12-20T01:51:17;0.73;;;0.50;;
74487;SDS011;63019;51.080;13.642;2023-12-20T01:52:20;0.70;;;0.50;;
74487;SDS011;63019;51.080;13.642;2023-12-20T01:53:23;0.73;;;0.57;;
74487;SDS011;63019;51.080;13.642;2023-12-20T01:54:26;0.50;;;0.40;;
74487;SDS011;63019;51.080;13.642;2023-12-20T01:55:29;1.00;;;0.70;;
74487;SDS011;63019;51.080;13.642;2023-12-20T01:56:34;0.75;;;0.57;;
74487;SDS011;63019;51.080;13.642;2023-12-20T01:57:36;0.43;;;0.43;;
74487;SDS011;63019;51.080;13.642;2023-12-20T01:58:39;0.55;;;0.40;;
74487;SDS011;63019;51.080;13.642;2023-12-20T01:59:47;0.50;;;0.40;;
74487;SDS011;63019;51.080;13.642;2023-12-20T02:00:49;0.50;;;0.40;;
74487;SDS011;63019;51.080;13.642;2023-12-20T02:01:51;1.40;;;0.50;;
74487;SDS011;63019;51.080;13.642;2023-12-20T02:02:54;0.50;;;0.40;;
74487;SDS011;63019;51.080;13.642;2023-12-20T02:03:56;1.05;;;0.40;;
74487;SDS011;63019;51.080;13.642;2023-12-20T02:04:59;1.95;;;0.43;;
74487;SDS011;63019;51.080;13.642;2023-12-20T02:06:01;1.30;;;0.40;;
74487;SDS011;63019;51.080;13.642;2023-12-20T02:07:03;0.75;;;0.40;;
74487;SDS011;63019;51.080;13.642;2023-12-20T02:08:06;0.90;;;0.38;;
74487;SDS011;63019;51.080;13.642;2023-12-20T02:09:08;0.30;;;0.30;;
74487;SDS011;63019;51.080;13.642;2023-12-20T02:10:10;1.08;;;0.40;;
74487;SDS011;63019;51.080;13.642;2023-12-20T02:11:12;0.75;;;0.40;;
74487;SDS011;63019;51.080;13.642;2023-12-20T02:12:14;0.75;;;0.40;;
74487;SDS011;63019;51.080;13.642;2023-12-20T02:13:16;0.63;;;0.30;;
74487;SDS011;63019;51.080;13.642;2023-12-20T02:14:18;1.45;;;0.40;;
74487;SDS011;63019;51.080;13.642;2023-12-20T02:15:20;0.30;;;0.30;;
74487;SDS011;63019;51.080;13.642;2023-12-20T02:16:22;0.60;;;0.57;;
74487;SDS011;63019;51.080;13.642;2023-12-20T02:17:24;0.40;;;0.30;;
74487;SDS011;63019;51.080;13.642;2023-12-20T02:18:27;1.00;;;0.50;;
74487;SDS011;63019;51.080;13.642;2023-12-20T02:19:29;0.75;;;0.30;;
74487;SDS011;63019;51.080;13.642;2023-12-20T02:20:31;0.40;;;0.30;;
74487;SDS011;63019;51.080;13.642;2023-12-20T02:21:33;0.50;;;0.40;;
74487;SDS011;63019;51.080;13.642;2023-12-20T02:22:36;0.30;;;0.30;;
74487;SDS011;63019;51.080;13.642;2023-12-20T02:23:38;0.77;;;0.20;;
74487;SDS011;63019;51.080;13.642;2023-12-20T02:24:39;0.93;;;0.40;;
74487;SDS011;63019;51.080;13.642;2023-12-20T02:25:41;0.68;;;0.30;;
74487;SDS011;63019;51.080;13.642;2023-12-20T02:26:44;0.40;;;0.30;;
74487;SDS011;63019;51.080;13.642;2023-12-20T02:27:48;1.35;;;0.32;;
74487;SDS011;63019;51.080;13.642;2023-12-20T02:28:50;0.38;;;0.30;;
74487;SDS011;63019;51.080;13.642;2023-12-20T02:29:52;0.73;;;0.40;;
74487;SDS011;63019;51.080;13.642;2023-12-20T02:30:54;0.50;;;0.40;;
74487;SDS011;63019;51.080;13.642;2023-12-20T02:31:56;1.27;;;0.65;;
74487;SDS011;63019;51.080;13.642;2023-12-20T02:32:59;0.40;;;0.30;;
74487;SDS011;63019;51.080;13.642;2023-12-20T02:34:01;0.40;;;0.30;;
74487;SDS011;63019;51.080;13.642;2023-12-20T02:35:03;0.70;;;0.50;;
74487;SDS011;63019;51.080;13.642;2023-12-20T02:36:06;0.43;;;0.30;;
74487;SDS011;63019;51.080;13.642;2023-12-20T02:37:08;1.85;;;0.30;;
74487;SDS011;63019;51.080;13.642;2023-12-20T02:38:10;0.40;;;0.40;;
74487;SDS011;63019;51.080;13.642;2023-12-20T02:39:11;0.52;;;0.40;;
74487;SDS011;63019;51.080;13.642;2023-12-20T02:40:14;1.20;;;0.35;;
74487;SDS011;63019;51.080;13.642;2023-12-20T02:41:16;0.30;;;0.30;;
74487;SDS011;63019;51.080;13.642;2023-12-20T02:42:19;0.93;;;0.40;;
74487;SDS011;63019;51.080;13.642;2023-12-20T02:43:21;0.40;;;0.30;;
74487;SDS011;63019;51.080;13.642;2023-12-20T02:44:23;0.90;;;0.50;;
74487;SDS011;63019;51.080;13.642;2023-12-20T02:45:25;0.30;;;0.30;;
74487;SDS011;63019;51.080;13.642;2023-12-20T02:46:28;0.45;;;0.30;;
74487;SDS011;63019;51.080;13.642;2023-12-20T02:47:29;1.02;;;0.30;;
74487;SDS011;63019;51.080;13.642;2023-12-20T02:48:31;0.60;;;0.40;;
74487;SDS011;63019;51.080;13.642;2023-12-20T02:49:33;0.52;;;0.35;;
74487;SDS011;63019;51.080;13.642;2023-12-20T02:50:35;0.25;;;0.20;;
74487;SDS011;63019;51.080;13.642;2023-12-20T02:51:37;1.30;;;0.30;;
74487;SDS011;63019;51.080;13.642;2023-12-20T02:52:40;1.27;;;0.32;;
74487;SDS011;63019;51.080;13.642;2023-12-20T02:53:41;0.20;;;0.20;;
74487;SDS011;63019;51.080;13.642;2023-12-20T02:54:43;0.40;;;0.30;;
74487;SDS011;63019;51.080;13.642;2023-12-20T02:55:45;0.30;;;0.30;;
74487;SDS011;63019;51.080;13.642;2023-12-20T03:01:02;0.30;;;0.30;;
74487;SDS011;63019;51.080;13.642;2023-12-20T03:02:05;0.95;;;0.35;;
74487;SDS011;63019;51.080;13.642;2023-12-20T03:03:07;0.47;;;0.30;;
74487;SDS011;63019;51.080;13.642;2023-12-20T03:04:09;0.30;;;0.30;;
74487;SDS011;63019;51.080;13.642;2023-12-20T03:05:11;0.40;;;0.20;;
74487;SDS011;63019;51.080;13.642;2023-12-20T03:06:15;0.40;;;0.40;;
74487;SDS011;63019;51.080;13.642;2023-12-20T03:07:20;0.27;;;0.20;;
74487;SDS011;63019;51.080;13.642;2023-12-20T03:08:22;0.30;;;0.30;;
74487;SDS011;63019;51.080;13.642;2023-12-20T03:09:24;3.22;;;0.50;;
74487;SDS011;63019;51.080;13.642;2023-12-20T03:10:26;0.40;;;0.40;;
74487;SDS011;63019;51.080;13.642;2023-12-20T03:11:28;0.45;;;0.32;;
74487;SDS011;63019;51.080;13.642;2023-12-20T03:12:30;0.30;;;0.30;;
74487;SDS011;63019;51.080;13.642;2023-12-20T03:13:31;0.20;;;0.20;;
74487;SDS011;63019;51.080;13.642;2023-12-20T03:14:33;0.77;;;0.30;;
74487;SDS011;63019;51.080;13.642;2023-12-20T03:15:35;0.30;;;0.30;;
74487;SDS011;63019;51.080;13.642;2023-12-20T03:16:37;0.60;;;0.40;;
74487;SDS011;63019;51.080;13.642;2023-12-20T03:17:39;0.60;;;0.40;;
74487;SDS011;63019;51.080;13.642;2023-12-20T03:18:41;0.60;;;0.30;;
74487;SDS011;63019;51.080;13.642;2023-12-20T03:19:43;0.47;;;0.30;;
74487;SDS011;63019;51.080;13.642;2023-12-20T03:20:44;1.45;;;0.32;;
74487;SDS011;63019;51.080;13.642;2023-12-20T03:21:48;1.30;;;0.20;;
74487;SDS011;63019;51.080;13.642;2023-12-20T03:22:50;0.43;;;0.40;;
74487;SDS011;63019;51.080;13.642;2023-12-20T03:23:52;0.60;;;0.30;;
74487;SDS011;63019;51.080;13.642;2023-12-20T03:24:54;0.20;;;0.20;;
74487;SDS011;63019;51.080;13.642;2023-12-20T03:25:56;0.80;;;0.50;;
74487;SDS011;63019;51.080;13.642;2023-12-20T03:26:57;0.30;;;0.25;;
74487;SDS011;63019;51.080;13.642;2023-12-20T03:27:59;0.20;;;0.20;;
74487;SDS011;63019;51.080;13.642;2023-12-20T03:29:01;0.22;;;0.22;;
74487;SDS011;63019;51.080;13.642;2023-12-20T03:30:03;1.58;;;0.20;;
74487;SDS011;63019;51.080;13.642;2023-12-20T03:31:06;0.60;;;0.20;;
74487;SDS011;63019;51.080;13.642;2023-12-20T03:32:08;1.50;;;0.30;;
74487;SDS011;63019;51.080;13.642;2023-12-20T03:33:10;0.40;;;0.30;;
74487;SDS011;63019;51.080;13.642;2023-12-20T03:34:12;0.20;;;0.20;;
74487;SDS011;63019;51.080;13.642;2023-12-20T03:35:14;0.85;;;0.30;;
74487;SDS011;63019;51.080;13.642;2023-12-20T03:36:16;1.45;;;0.28;;
74487;SDS011;63019;51.080;13.642;2023-12-20T03:37:17;0.32;;;0.25;;
74487;SDS011;63019;51.080;13.642;2023-12-20T03:38:20;0.70;;;0.20;;
74487;SDS011;63019;51.080;13.642;2023-12-20T03:39:22;0.35;;;0.30;;
74487;SDS011;63019;51.080;13.642;2023-12-20T03:40:24;0.20;;;0.20;;
74487;SDS011;63019;51.080;13.642;2023-12-20T03:41:26;0.20;;;0.20;;
74487;SDS011;63019;51.080;13.642;2023-12-20T03:42:28;0.68;;;0.25;;
74487;SDS011;63019;51.080;13.642;2023-12-20T03:43:29;0.30;;;0.30;;
74487;SDS011;63019;51.080;13.642;2023-12-20T03:44:31;1.20;;;0.25;;
74487;SDS011;63019;51.080;13.642;2023-12-20T03:45:33;0.28;;;0.28;;
74487;SDS011;63019;51.080;13.642;2023-12-20T03:46:35;0.47;;;0.40;;
74487;SDS011;63019;51.080;13.642;2023-12-20T03:47:37;0.20;;;0.20;;
74487;SDS011;63019;51.080;13.642;2023-12-20T03:48:39;0.27;;;0.27;;
74487;SDS011;63019;51.080;13.642;2023-12-20T03:49:41;0.40;;;0.35;;
74487;SDS011;63019;51.080;13.642;2023-12-20T03:50:43;1.95;;;0.20;;
74487;SDS011;63019;51.080;13.642;2023-12-20T03:51:45;0.30;;;0.30;;
74487;SDS011;63019;51.080;13.642;2023-12-20T03:52:46;1.23;;;0.30;;
74487;SDS011;63019;51.080;13.642;2023-12-20T03:53:48;0.30;;;0.25;;
74487;SDS011;63019;51.080;13.642;2023-12-20T03:54:50;1.45;;;0.35;;
74487;SDS011;63019;51.080;13.642;2023-12-20T03:55:52;0.50;;;0.25;;
74487;SDS011;63019;51.080;13.642;2023-12-20T03:56:54;0.20;;;0.20;;
74487;SDS011;63019;51.080;13.642;2023-12-20T03:57:56;0.20;;;0.20;;
74487;SDS011;63019;51.080;13.642;2023-12-20T03:58:57;0.57;;;0.27;;
74487;SDS011;63019;51.080;13.642;2023-12-20T03:59:59;0.32;;;0.30;;
74487;SDS011;63019;51.080;13.642;2023-12-20T04:01:01;0.52;;;0.20;;
74487;SDS011;63019;51.080;13.642;2023-12-20T04:02:04;0.20;;;0.20;;
74487;SDS011;63019;51.080;13.642;2023-12-20T04:03:06;0.45;;;0.43;;
74487;SDS011;63019;51.080;13.642;2023-12-20T04:04:08;0.20;;;0.20;;
74487;SDS011;63019;51.080;13.642;2023-12-20T04:05:10;0.43;;;0.20;;
74487;SDS011;63019;51.080;13.642;2023-12-20T04:06:21;1.50;;;0.40;;
74487;SDS011;63019;51.080;13.642;2023-12-20T04:07:23;0.30;;;0.13;;
74487;SDS011;63019;51.080;13.642;2023-12-20T04:08:25;0.30;;;0.20;;
74487;SDS011;63019;51.080;13.642;2023-12-20T04:09:27;2.23;;;0.30;;
74487;SDS011;63019;51.080;13.642;2023-12-20T04:10:28;0.50;;;0.30;;
74487;SDS011;63019;51.080;13.642;2023-12-20T04:11:30;0.10;;;0.10;;
74487;SDS011;63019;51.080;13.642;2023-12-20T04:12:32;0.28;;;0.28;;
74487;SDS011;63019;51.080;13.642;2023-12-20T04:13:34;0.30;;;0.30;;
74487;SDS011;63019;51.080;13.642;2023-12-20T04:14:36;0.20;;;0.20;;
74487;SDS011;63019;51.080;13.642;2023-12-20T04:15:38;0.20;;;0.20;;
74487;SDS011;63019;51.080;13.642;2023-12-20T04:16:41;0.40;;;0.40;;
74487;SDS011;63019;51.080;13.642;2023-12-20T04:17:47;1.70;;;0.30;;
74487;SDS011;63019;51.080;13.642;2023-12-20T04:18:50;0.30;;;0.20;;
74487;SDS011;63019;51.080;13.642;2023-12-20T04:19:52;1.20;;;0.30;;
74487;SDS011;63019;51.080;13.642;2023-12-20T04:20:54;0.30;;;0.30;;
74487;SDS011;63019;51.080;13.642;2023-12-20T04:21:56;0.20;;;0.20;;
74487;SDS011;63019;51.080;13.642;2023-12-20T04:22:57;0.43;;;0.20;;
74487;SDS011;63019;51.080;13.642;2023-12-20T04:23:59;0.40;;;0.30;;
74487;SDS011;63019;51.080;13.642;2023-12-20T04:25:01;0.25;;;0.20;;
74487;SDS011;63019;51.080;13.642;2023-12-20T04:26:03;0.30;;;0.30;;
74487;SDS011;63019;51.080;13.642;2023-12-20T04:27:05;0.50;;;0.40;;
74487;SDS011;63019;51.080;13.642;2023-12-20T04:28:07;1.70;;;0.40;;
74487;SDS011;63019;51.080;13.642;2023-12-20T04:29:09;0.40;;;0.40;;
74487;SDS011;63019;51.080;13.642;2023-12-20T04:30:11;0.30;;;0.30;;
74487;SDS011;63019;51.080;13.642;2023-12-20T04:31:13;0.65;;;0.30;;
74487;SDS011;63019;51.080;13.642;2023-12-20T04:32:15;0.28;;;0.20;;
74487;SDS011;63019;51.080;13.642;2023-12-20T04:33:17;0.47;;;0.35;;
74487;SDS011;63019;51.080;13.642;2023-12-20T04:34:19;0.98;;;0.35;;
74487;SDS011;63019;51.080;13.642;2023-12-20T04:35:22;0.63;;;0.30;;
74487;SDS011;63019;51.080;13.642;2023-12-20T04:36:24;0.40;;;0.40;;
74487;SDS011;63019;51.080;13.642;2023-12-20T04:37:28;0.22;;;0.22;;
74487;SDS011;63019;51.080;13.642;2023-12-20T04:38:30;0.30;;;0.30;;
74487;SDS011;63019;51.080;13.642;2023-12-20T04:39:31;0.30;;;0.25;;
74487;SDS011;63019;51.080;13.642;2023-12-20T04:40:34;2.10;;;0.30;;
74487;SDS011;63019;51.080;13.642;2023-12-20T04:41:36;0.43;;;0.30;;
74487;SDS011;63019;51.080;13.642;2023-12-20T04:42:38;0.35;;;0.35;;
74487;SDS011;63019;51.080;13.642;2023-12-20T04:43:39;0.47;;;0.30;;
74487;SDS011;63019;51.080;13.642;2023-12-20T04:44:41;0.30;;;0.28;;
74487;SDS011;63019;51.080;13.642;2023-12-20T04:45:45;1.10;;;0.30;;
74487;SDS011;63019;51.080;13.642;2023-12-20T04:46:46;1.40;;;0.40;;
74487;SDS011;63019;51.080;13.642;2023-12-20T04:47:48;0.22;;;0.22;;
74487;SDS011;63019;51.080;13.642;2023-12-20T04:48:50;1.33;;;0.32;;
74487;SDS011;63019;51.080;13.642;2023-12-20T04:49:52;0.45;;;0.28;;
74487;SDS011;63019;51.080;13.642;2023-12-20T04:50:54;0.30;;;0.20;;
74487;SDS011;63019;51.080;13.642;2023-12-20T04:51:56;0.30;;;0.30;;
74487;SDS011;63019;51.080;13.642;2023-12-20T04:52:58;0.28;;;0.22;;
74487;SDS011;63019;51.080;13.642;2023-12-20T04:54:00;0.40;;;0.30;;
74487;SDS011;63019;51.080;13.642;2023-12-20T04:55:02;0.40;;;0.20;;
74487;SDS011;63019;51.080;13.642;2023-12-20T04:56:04;0.60;;;0.30;;
74487;SDS011;63019;51.080;13.642;2023-12-20T04:57:06;0.52;;;0.30;;
74487;SDS011;63019;51.080;13.642;2023-12-20T04:58:08;0.40;;;0.30;;
74487;SDS011;63019;51.080;13.642;2023-12-20T04:59:09;0.70;;;0.30;;
74487;SDS011;63019;51.080;13.642;2023-12-20T05:00:11;0.30;;;0.30;;
74487;SDS011;63019;51.080;13.642;2023-12-20T05:01:15;0.40;;;0.40;;
74487;SDS011;63019;51.080;13.642;2023-12-20T05:02:17;0.60;;;0.40;;
74487;SDS011;63019;51.080;13.642;2023-12-20T05:03:19;0.73;;;0.25;;
74487;SDS011;63019;51.080;13.642;2023-12-20T05:04:21;0.38;;;0.30;;
74487;SDS011;63019;51.080;13.642;2023-12-20T05:05:22;0.35;;;0.30;;
74487;SDS011;63019;51.080;13.642;2023-12-20T05:06:24;1.33;;;0.35;;
74487;SDS011;63019;51.080;13.642;2023-12-20T05:07:26;1.65;;;0.30;;
74487;SDS011;63019;51.080;13.642;2023-12-20T05:08:28;0.50;;;0.40;;
74487;SDS011;63019;51.080;13.642;2023-12-20T05:09:30;0.75;;;0.50;;
74487;SDS011;63019;51.080;13.642;2023-12-20T05:10:32;0.30;;;0.22;;
74487;SDS011;63019;51.080;13.642;2023-12-20T05:11:34;0.90;;;0.30;;
74487;SDS011;63019;51.080;13.642;2023-12-20T05:12:36;0.63;;;0.30;;
74487;SDS011;63019;51.080;13.642;2023-12-20T05:13:39;0.60;;;0.40;;
74487;SDS011;63019;51.080;13.642;2023-12-20T05:14:51;0.40;;;0.30;;
74487;SDS011;63019;51.080;13.642;2023-12-20T05:15:53;0.43;;;0.25;;
74487;SDS011;63019;51.080;13.642;2023-12-20T05:16:55;0.73;;;0.40;;
74487;SDS011;63019;51.080;13.642;2023-12-20T05:17:57;2.92;;;0.50;;
74487;SDS011;63019;51.080;13.642;2023-12-20T05:19:00;1.73;;;0.30;;
74487;SDS011;63019;51.080;13.642;2023-12-20T05:20:07;0.22;;;0.20;;
74487;SDS011;63019;51.080;13.642;2023-12-20T05:21:09;0.50;;;0.40;;
74487;SDS011;63019;51.080;13.642;2023-12-20T05:22:11;0.20;;;0.20;;
74487;SDS011;63019;51.080;13.642;2023-12-20T05:23:13;0.50;;;0.40;;
74487;SDS011;63019;51.080;13.642;2023-12-20T05:24:15;0.35;;;0.30;;
74487;SDS011;63019;51.080;13.642;2023-12-20T05:25:17;0.50;;;0.32;;
74487;SDS011;63019;51.080;13.642;2023-12-20T05:26:19;0.32;;;0.32;;
74487;SDS011;63019;51.080;13.642;2023-12-20T05:27:21;0.30;;;0.30;;
74487;SDS011;63019;51.080;13.642;2023-12-20T05:28:23;0.82;;;0.30;;
74487;SDS011;63019;51.080;13.642;2023-12-20T05:29:25;0.50;;;0.40;;
74487;SDS011;63019;51.080;13.642;2023-12-20T05:30:26;1.10;;;0.30;;
74487;SDS011;63019;51.080;13.642;2023-12-20T05:31:28;1.20;;;0.30;;
74487;SDS011;63019;51.080;13.642;2023-12-20T05:32:30;1.23;;;0.40;;
74487;SDS011;63019;51.080;13.642;2023-12-20T05:33:32;0.38;;;0.30;;
74487;SDS011;63019;51.080;13.642;2023-12-20T05:34:34;0.13;;;0.13;;
74487;SDS011;63019;51.080;13.642;2023-12-20T05:35:36;0.40;;;0.30;;
74487;SDS011;63019;51.080;13.642;2023-12-20T05:36:38;0.30;;;0.30;;
74487;SDS011;63019;51.080;13.642;2023-12-20T05:37:40;0.20;;;0.20;;
74487;SDS011;63019;51.080;13.642;2023-12-20T05:38:43;0.80;;;0.30;;
74487;SDS011;63019;51.080;13.642;2023-12-20T05:39:45;0.40;;;0.30;;
74487;SDS011;63019;51.080;13.642;2023-12-20T05:40:47;1.17;;;0.32;;
74487;SDS011;63019;51.080;13.642;2023-12-20T05:41:48;0.20;;;0.20;;
74487;SDS011;63019;51.080;13.642;2023-12-20T05:42:50;0.20;;;0.20;;
74487;SDS011;63019;51.080;13.642;2023-12-20T05:43:52;0.43;;;0.20;;
74487;SDS011;63019;51.080;13.642;2023-12-20T05:44:54;0.30;;;0.20;;
74487;SDS011;63019;51.080;13.642;2023-12-20T05:45:59;0.55;;;0.20;;
74487;SDS011;63019;51.080;13.642;2023-12-20T05:47:01;0.43;;;0.20;;
74487;SDS011;63019;51.080;13.642;2023-12-20T05:48:03;0.30;;;0.30;;
74487;SDS011;63019;51.080;13.642;2023-12-20T05:49:05;0.30;;;0.30;;
74487;SDS011;63019;51.080;13.642;2023-12-20T05:50:08;2.50;;;0.25;;
74487;SDS011;63019;51.080;13.642;2023-12-20T05:51:13;0.30;;;0.30;;
74487;SDS011;63019;51.080;13.642;2023-12-20T05:52:15;0.32;;;0.20;;
74487;SDS011;63019;51.080;13.642;2023-12-20T05:53:17;0.17;;;0.17;;
74487;SDS011;63019;51.080;13.642;2023-12-20T05:54:18;1.00;;;0.30;;
74487;SDS011;63019;51.080;13.642;2023-12-20T05:55:20;0.20;;;0.20;;
74487;SDS011;63019;51.080;13.642;2023-12-20T05:56:23;0.47;;;0.20;;
74487;SDS011;63019;51.080;13.642;2023-12-20T05:57:25;0.20;;;0.20;;
74487;SDS011;63019;51.080;13.642;2023-12-20T05:58:26;0.20;;;0.20;;
74487;SDS011;63019;51.080;13.642;2023-12-20T05:59:28;0.65;;;0.30;;
74487;SDS011;63019;51.080;13.642;2023-12-20T06:00:30;0.15;;;0.15;;
74487;SDS011;63019;51.080;13.642;2023-12-20T06:01:32;0.43;;;0.30;;
74487;SDS011;63019;51.080;13.642;2023-12-20T06:02:34;0.28;;;0.28;;
74487;SDS011;63019;51.080;13.642;2023-12-20T06:03:40;0.60;;;0.30;;
74487;SDS011;63019;51.080;13.642;2023-12-20T06:04:43;0.25;;;0.25;;
74487;SDS011;63019;51.080;13.642;2023-12-20T06:05:45;0.60;;;0.30;;
74487;SDS011;63019;51.080;13.642;2023-12-20T06:06:47;0.32;;;0.30;;
74487;SDS011;63019;51.080;13.642;2023-12-20T06:07:49;1.33;;;0.30;;
74487;SDS011;63019;51.080;13.642;2023-12-20T06:08:52;5.82;;;0.68;;
74487;SDS011;63019;51.080;13.642;2023-12-20T06:09:54;1.23;;;0.30;;
74487;SDS011;63019;51.080;13.642;2023-12-20T06:10:56;0.57;;;0.38;;
74487;SDS011;63019;51.080;13.642;2023-12-20T06:11:57;0.30;;;0.30;;
74487;SDS011;63019;51.080;13.642;2023-12-20T06:12:59;0.20;;;0.20;;